sensor_id;sensor_type;location;lat;lon;timestamp;pressure;altitude;pressure_sealevel;temperature;humidity
33286;BME280;19656;50.096;20.014;2023-05-08T00:04:15;100012.23;;;9.16;62.30
33286;BME280;19656;50.096;20.014;2023-05-08T00:09:20;100016.40;;;9.13;62.14
33286;BME280;19656;50.096;20.014;2023-05-08T00:14:23;100022.67;;;9.15;62.18
33286;BME280;19656;50.096;20.014;2023-05-08T00:19:26;100018.73;;;9.21;61.69
33286;BME280;19656;50.096;20.014;2023-05-08T00:24:30;100015.42;;;9.11;61.66
33286;BME280;19656;50.096;20.014;2023-05-08T00:29:33;100013.99;;;9.07;61.64
33286;BME280;19656;50.096;20.014;2023-05-08T00:34:37;100015.24;;;8.93;61.43
33286;BME280;19656;50.096;20.014;2023-05-08T00:39:40;100022.27;;;8.86;61.47
33286;BME280;19656;50.096;20.014;2023-05-08T00:44:43;100022.56;;;8.83;61.57
33286;BME280;19656;50.096;20.014;2023-05-08T00:49:48;100027.90;;;8.77;61.43
33286;BME280;19656;50.096;20.014;2023-05-08T00:54:52;100027.37;;;8.73;61.49
33286;BME280;19656;50.096;20.014;2023-05-08T00:59:56;100034.27;;;8.73;61.53
33286;BME280;19656;50.096;20.014;2023-05-08T01:05:02;100041.96;;;8.70;61.83
33286;BME280;19656;50.096;20.014;2023-05-08T01:10:06;100039.96;;;8.67;62.00
33286;BME280;19656;50.096;20.014;2023-05-08T01:25:55;100055.49;;;8.64;62.35
33286;BME280;19656;50.096;20.014;2023-05-08T01:37:07;100053.63;;;8.66;62.91
33286;BME280;19656;50.096;20.014;2023-05-08T01:47:40;100047.97;;;8.57;62.41
33286;BME280;19656;50.096;20.014;2023-05-08T01:52:48;100053.52;;;8.55;62.44
33286;BME280;19656;50.096;20.014;2023-05-08T01:57:55;100057.03;;;8.55;62.21
33286;BME280;19656;50.096;20.014;2023-05-08T02:03:00;100055.15;;;8.54;62.08
33286;BME280;19656;50.096;20.014;2023-05-08T02:08:07;100053.23;;;8.53;62.09
33286;BME280;19656;50.096;20.014;2023-05-08T02:13:12;100052.35;;;8.53;62.02
33286;BME280;19656;50.096;20.014;2023-05-08T02:18:23;100051.44;;;8.49;61.99
33286;BME280;19656;50.096;20.014;2023-05-08T02:23:28;100047.12;;;8.51;62.12
33286;BME280;19656;50.096;20.014;2023-05-08T02:28:32;100060.73;;;8.51;62.00
33286;BME280;19656;50.096;20.014;2023-05-08T02:33:41;100063.27;;;8.49;61.83
33286;BME280;19656;50.096;20.014;2023-05-08T02:38:47;100063.57;;;8.46;61.82
33286;BME280;19656;50.096;20.014;2023-05-08T02:43:54;100065.79;;;8.44;61.78
33286;BME280;19656;50.096;20.014;2023-05-08T02:49:02;100071.35;;;8.41;61.70
33286;BME280;19656;50.096;20.014;2023-05-08T02:54:09;100073.96;;;8.42;61.77
33286;BME280;19656;50.096;20.014;2023-05-08T02:59:22;100076.06;;;8.43;61.38
33286;BME280;19656;50.096;20.014;2023-05-08T03:04:36;100078.12;;;8.40;61.01
33286;BME280;19656;50.096;20.014;2023-05-08T03:09:46;100083.98;;;8.34;61.10
33286;BME280;19656;50.096;20.014;2023-05-08T03:15:03;100082.61;;;8.33;61.12
33286;BME280;19656;50.096;20.014;2023-05-08T03:20:14;100083.20;;;8.31;60.79
33286;BME280;19656;50.096;20.014;2023-05-08T03:25:20;100086.17;;;8.26;60.94
33286;BME280;19656;50.096;20.014;2023-05-08T03:30:25;100085.15;;;8.20;60.80
33286;BME280;19656;50.096;20.014;2023-05-08T03:35:38;100085.52;;;8.15;61.09
33286;BME280;19656;50.096;20.014;2023-05-08T03:40:45;100089.36;;;8.17;61.20
33286;BME280;19656;50.096;20.014;2023-05-08T03:45:49;100089.80;;;8.14;60.96
33286;BME280;19656;50.096;20.014;2023-05-08T03:50:54;100093.45;;;8.11;61.13
33286;BME280;19656;50.096;20.014;2023-05-08T03:55:59;100096.52;;;8.09;60.85
33286;BME280;19656;50.096;20.014;2023-05-08T04:01:22;100095.67;;;8.08;60.89
33286;BME280;19656;50.096;20.014;2023-05-08T04:06:39;100099.65;;;8.05;60.99
33286;BME280;19656;50.096;20.014;2023-05-08T04:12:02;100101.61;;;8.10;60.95
33286;BME280;19656;50.096;20.014;2023-05-08T04:17:13;100110.81;;;8.04;60.56
33286;BME280;19656;50.096;20.014;2023-05-08T04:22:19;100122.88;;;7.98;60.88
33286;BME280;19656;50.096;20.014;2023-05-08T04:27:25;100126.23;;;7.98;61.07
33286;BME280;19656;50.096;20.014;2023-05-08T04:32:38;100130.98;;;7.99;61.09
33286;BME280;19656;50.096;20.014;2023-05-08T04:37:45;100137.56;;;7.97;61.00
33286;BME280;19656;50.096;20.014;2023-05-08T04:42:49;100141.59;;;7.98;61.18
33286;BME280;19656;50.096;20.014;2023-05-08T04:47:53;100146.14;;;8.00;61.03
33286;BME280;19656;50.096;20.014;2023-05-08T04:52:57;100152.74;;;8.03;61.24
33286;BME280;19656;50.096;20.014;2023-05-08T04:58:01;100156.36;;;8.06;61.27
33286;BME280;19656;50.096;20.014;2023-05-08T05:03:05;100163.40;;;8.07;61.16
33286;BME280;19656;50.096;20.014;2023-05-08T05:08:08;100163.61;;;8.06;61.25
33286;BME280;19656;50.096;20.014;2023-05-08T05:13:12;100171.58;;;8.11;61.44
33286;BME280;19656;50.096;20.014;2023-05-08T05:18:15;100177.63;;;8.20;61.49
33286;BME280;19656;50.096;20.014;2023-05-08T05:23:19;100179.89;;;8.26;61.32
33286;BME280;19656;50.096;20.014;2023-05-08T05:28:22;100184.61;;;8.33;61.25
33286;BME280;19656;50.096;20.014;2023-05-08T05:33:26;100183.62;;;8.36;61.03
33286;BME280;19656;50.096;20.014;2023-05-08T05:38:29;100189.02;;;8.40;60.79
33286;BME280;19656;50.096;20.014;2023-05-08T05:43:33;100190.67;;;8.43;60.75
33286;BME280;19656;50.096;20.014;2023-05-08T05:48:38;100192.58;;;8.44;60.22
33286;BME280;19656;50.096;20.014;2023-05-08T05:53:44;100196.04;;;8.46;60.23
33286;BME280;19656;50.096;20.014;2023-05-08T05:58:47;100205.84;;;8.54;60.11
33286;BME280;19656;50.096;20.014;2023-05-08T06:03:51;100209.77;;;8.58;60.09
33286;BME280;19656;50.096;20.014;2023-05-08T06:08:55;100214.40;;;8.62;59.97
33286;BME280;19656;50.096;20.014;2023-05-08T06:13:58;100214.52;;;8.64;59.88
33286;BME280;19656;50.096;20.014;2023-05-08T06:19:02;100217.54;;;8.68;59.51
33286;BME280;19656;50.096;20.014;2023-05-08T06:24:05;100220.90;;;8.73;59.35
33286;BME280;19656;50.096;20.014;2023-05-08T06:29:09;100220.05;;;8.77;59.42
33286;BME280;19656;50.096;20.014;2023-05-08T06:34:13;100230.05;;;8.80;59.65
33286;BME280;19656;50.096;20.014;2023-05-08T06:39:16;100238.41;;;8.79;59.93
33286;BME280;19656;50.096;20.014;2023-05-08T06:44:20;100234.77;;;8.82;59.85
33286;BME280;19656;50.096;20.014;2023-05-08T06:49:23;100237.52;;;8.94;59.51
33286;BME280;19656;50.096;20.014;2023-05-08T06:54:26;100236.20;;;9.00;59.36
33286;BME280;19656;50.096;20.014;2023-05-08T06:59:40;100231.16;;;9.31;59.17
33286;BME280;19656;50.096;20.014;2023-05-08T07:04:45;100230.45;;;9.55;58.80
33286;BME280;19656;50.096;20.014;2023-05-08T07:09:48;100235.84;;;9.75;58.40
33286;BME280;19656;50.096;20.014;2023-05-08T07:14:51;100240.98;;;9.85;57.35
33286;BME280;19656;50.096;20.014;2023-05-08T07:19:57;100242.95;;;9.75;57.01
33286;BME280;19656;50.096;20.014;2023-05-08T07:25:00;100233.20;;;9.80;57.21
33286;BME280;19656;50.096;20.014;2023-05-08T07:30:04;100238.58;;;9.83;57.17
33286;BME280;19656;50.096;20.014;2023-05-08T07:35:12;100246.35;;;9.83;56.76
33286;BME280;19656;50.096;20.014;2023-05-08T07:40:16;100249.65;;;9.90;56.28
33286;BME280;19656;50.096;20.014;2023-05-08T07:45:19;100249.36;;;9.97;56.23
33286;BME280;19656;50.096;20.014;2023-05-08T07:50:24;100254.58;;;10.08;56.76
33286;BME280;19656;50.096;20.014;2023-05-08T07:55:32;100254.45;;;10.25;56.63
33286;BME280;19656;50.096;20.014;2023-05-08T08:00:35;100255.92;;;10.32;55.95
33286;BME280;19656;50.096;20.014;2023-05-08T08:05:40;100257.89;;;10.36;55.69
33286;BME280;19656;50.096;20.014;2023-05-08T08:10:44;100253.42;;;10.41;55.18
33286;BME280;19656;50.096;20.014;2023-05-08T08:15:47;100249.01;;;10.53;55.52
33286;BME280;19656;50.096;20.014;2023-05-08T08:20:50;100259.43;;;10.71;54.47
33286;BME280;19656;50.096;20.014;2023-05-08T08:25:54;100252.18;;;10.79;52.89
33286;BME280;19656;50.096;20.014;2023-05-08T08:30:57;100251.06;;;10.88;52.32
33286;BME280;19656;50.096;20.014;2023-05-08T08:36:01;100246.42;;;10.92;52.73
33286;BME280;19656;50.096;20.014;2023-05-08T08:41:05;100247.55;;;11.00;53.10
33286;BME280;19656;50.096;20.014;2023-05-08T08:46:11;100250.92;;;11.04;52.52
33286;BME280;19656;50.096;20.014;2023-05-08T08:57:06;100246.41;;;11.17;52.17
33286;BME280;19656;50.096;20.014;2023-05-08T09:02:12;100251.65;;;11.30;52.38
33286;BME280;19656;50.096;20.014;2023-05-08T09:07:22;100260.61;;;11.45;52.04
33286;BME280;19656;50.096;20.014;2023-05-08T09:12:26;100258.54;;;11.51;51.65
33286;BME280;19656;50.096;20.014;2023-05-08T09:17:30;100260.92;;;11.57;51.76
33286;BME280;19656;50.096;20.014;2023-05-08T09:22:36;100257.64;;;11.67;50.98
33286;BME280;19656;50.096;20.014;2023-05-08T09:27:41;100255.05;;;11.84;51.27
33286;BME280;19656;50.096;20.014;2023-05-08T09:32:44;100258.63;;;11.95;51.46
33286;BME280;19656;50.096;20.014;2023-05-08T09:38:03;100248.20;;;12.04;51.16
33286;BME280;19656;50.096;20.014;2023-05-08T09:43:12;100248.90;;;12.12;51.97
33286;BME280;19656;50.096;20.014;2023-05-08T09:48:15;100263.29;;;12.09;51.10
33286;BME280;19656;50.096;20.014;2023-05-08T09:53:18;100259.06;;;11.97;51.22
33286;BME280;19656;50.096;20.014;2023-05-08T09:58:21;100262.90;;;11.95;51.41
33286;BME280;19656;50.096;20.014;2023-05-08T10:03:45;100267.67;;;11.92;51.01
33286;BME280;19656;50.096;20.014;2023-05-08T10:09:07;100268.91;;;11.96;51.20
33286;BME280;19656;50.096;20.014;2023-05-08T10:14:10;100264.23;;;12.00;51.05
33286;BME280;19656;50.096;20.014;2023-05-08T10:19:18;100260.68;;;12.00;51.00
33286;BME280;19656;50.096;20.014;2023-05-08T10:24:32;100261.09;;;11.96;50.39
33286;BME280;19656;50.096;20.014;2023-05-08T10:29:51;100259.46;;;11.93;50.74
33286;BME280;19656;50.096;20.014;2023-05-08T10:35:01;100255.58;;;11.99;50.95
33286;BME280;19656;50.096;20.014;2023-05-08T10:40:05;100248.30;;;12.24;50.67
33286;BME280;19656;50.096;20.014;2023-05-08T10:45:09;100243.23;;;12.47;50.31
33286;BME280;19656;50.096;20.014;2023-05-08T10:55:29;100240.61;;;12.91;49.29
33286;BME280;19656;50.096;20.014;2023-05-08T11:05:59;100232.09;;;12.74;49.22
33286;BME280;19656;50.096;20.014;2023-05-08T11:11:13;100234.48;;;12.79;49.41
33286;BME280;19656;50.096;20.014;2023-05-08T11:22:21;100230.81;;;13.05;49.23
33286;BME280;19656;50.096;20.014;2023-05-08T11:38:34;100219.39;;;13.09;49.28
33286;BME280;19656;50.096;20.014;2023-05-08T11:48:47;100216.84;;;12.99;49.06
33286;BME280;19656;50.096;20.014;2023-05-08T11:53:50;100217.71;;;13.00;49.22
33286;BME280;19656;50.096;20.014;2023-05-08T11:59:04;100219.76;;;13.09;49.55
33286;BME280;19656;50.096;20.014;2023-05-08T12:04:10;100217.20;;;13.23;48.94
33286;BME280;19656;50.096;20.014;2023-05-08T12:09:15;100212.08;;;13.36;48.74
33286;BME280;19656;50.096;20.014;2023-05-08T12:14:21;100203.20;;;13.42;48.20
33286;BME280;19656;50.096;20.014;2023-05-08T12:19:25;100204.48;;;13.47;47.79
33286;BME280;19656;50.096;20.014;2023-05-08T12:24:28;100202.41;;;13.59;47.69
33286;BME280;19656;50.096;20.014;2023-05-08T12:29:34;100208.79;;;13.53;47.25
33286;BME280;19656;50.096;20.014;2023-05-08T12:34:38;100204.34;;;13.40;47.08
33286;BME280;19656;50.096;20.014;2023-05-08T12:39:46;100199.92;;;13.33;47.35
33286;BME280;19656;50.096;20.014;2023-05-08T12:44:51;100197.98;;;13.39;47.37
33286;BME280;19656;50.096;20.014;2023-05-08T12:49:56;100189.36;;;13.60;47.20
33286;BME280;19656;50.096;20.014;2023-05-08T12:54:59;100188.05;;;13.80;47.53
33286;BME280;19656;50.096;20.014;2023-05-08T13:00:09;100194.39;;;13.71;46.54
33286;BME280;19656;50.096;20.014;2023-05-08T13:05:18;100199.24;;;13.58;45.46
33286;BME280;19656;50.096;20.014;2023-05-08T13:10:21;100196.00;;;13.46;45.30
33286;BME280;19656;50.096;20.014;2023-05-08T13:15:27;100189.27;;;13.29;45.95
33286;BME280;19656;50.096;20.014;2023-05-08T13:25:29;100190.69;;;13.26;46.68
33286;BME280;19656;50.096;20.014;2023-05-08T13:30:34;100190.09;;;13.40;46.49
33286;BME280;19656;50.096;20.014;2023-05-08T13:35:38;100188.23;;;13.55;45.84
33286;BME280;19656;50.096;20.014;2023-05-08T13:40:42;100187.45;;;13.62;45.43
33286;BME280;19656;50.096;20.014;2023-05-08T13:45:46;100185.69;;;13.68;45.31
33286;BME280;19656;50.096;20.014;2023-05-08T13:50:50;100183.41;;;13.73;45.15
33286;BME280;19656;50.096;20.014;2023-05-08T13:55:53;100177.29;;;14.27;45.46
33286;BME280;19656;50.096;20.014;2023-05-08T14:00:57;100173.84;;;14.73;44.23
33286;BME280;19656;50.096;20.014;2023-05-08T14:06:07;100178.95;;;14.59;43.29
33286;BME280;19656;50.096;20.014;2023-05-08T14:11:13;100179.66;;;14.29;42.90
33286;BME280;19656;50.096;20.014;2023-05-08T14:22:31;100177.59;;;13.81;44.04
33286;BME280;19656;50.096;20.014;2023-05-08T14:27:56;100174.27;;;13.68;44.24
33286;BME280;19656;50.096;20.014;2023-05-08T14:33:00;100168.35;;;13.62;44.85
33286;BME280;19656;50.096;20.014;2023-05-08T14:38:06;100171.67;;;13.70;44.95
33286;BME280;19656;50.096;20.014;2023-05-08T14:43:16;100174.30;;;13.77;44.79
33286;BME280;19656;50.096;20.014;2023-05-08T14:48:55;100171.67;;;13.79;43.61
33286;BME280;19656;50.096;20.014;2023-05-08T14:53:59;100172.70;;;13.77;43.88
33286;BME280;19656;50.096;20.014;2023-05-08T14:59:06;100176.30;;;13.79;43.88
33286;BME280;19656;50.096;20.014;2023-05-08T15:25:35;100168.77;;;13.80;44.32
33286;BME280;19656;50.096;20.014;2023-05-08T15:30:39;100171.26;;;13.68;44.70
33286;BME280;19656;50.096;20.014;2023-05-08T15:35:47;100171.16;;;13.76;44.79
33286;BME280;19656;50.096;20.014;2023-05-08T15:40:58;100163.46;;;14.03;44.79
33286;BME280;19656;50.096;20.014;2023-05-08T15:46:02;100159.48;;;14.41;44.55
33286;BME280;19656;50.096;20.014;2023-05-08T15:51:11;100159.25;;;14.63;44.54
33286;BME280;19656;50.096;20.014;2023-05-08T15:57:08;100153.46;;;14.76;43.37
33286;BME280;19656;50.096;20.014;2023-05-08T16:02:12;100147.39;;;14.82;42.52
33286;BME280;19656;50.096;20.014;2023-05-08T16:07:45;100144.98;;;14.89;42.54
33286;BME280;19656;50.096;20.014;2023-05-08T16:12:55;100146.72;;;14.64;42.33
33286;BME280;19656;50.096;20.014;2023-05-08T16:18:11;100141.27;;;14.32;42.25
33286;BME280;19656;50.096;20.014;2023-05-08T16:23:26;100136.42;;;14.12;42.45
33286;BME280;19656;50.096;20.014;2023-05-08T16:28:56;100138.92;;;13.90;42.94
33286;BME280;19656;50.096;20.014;2023-05-08T16:34:14;100143.23;;;13.71;43.24
33286;BME280;19656;50.096;20.014;2023-05-08T16:40:13;100147.25;;;13.60;43.44
33286;BME280;19656;50.096;20.014;2023-05-08T16:45:18;100150.80;;;13.48;44.04
33286;BME280;19656;50.096;20.014;2023-05-08T16:50:28;100148.09;;;13.48;44.09
33286;BME280;19656;50.096;20.014;2023-05-08T16:56:13;100149.19;;;13.48;44.47
33286;BME280;19656;50.096;20.014;2023-05-08T17:01:38;100149.52;;;13.42;44.35
33286;BME280;19656;50.096;20.014;2023-05-08T17:07:17;100148.84;;;13.38;44.66
33286;BME280;19656;50.096;20.014;2023-05-08T17:12:25;100146.55;;;13.38;45.21
33286;BME280;19656;50.096;20.014;2023-05-08T17:24:19;100155.19;;;13.19;45.42
33286;BME280;19656;50.096;20.014;2023-05-08T17:35:56;100161.27;;;13.06;45.30
33286;BME280;19656;50.096;20.014;2023-05-08T17:41:14;100159.81;;;13.03;45.60
33286;BME280;19656;50.096;20.014;2023-05-08T17:46:20;100159.23;;;13.01;45.98
33286;BME280;19656;50.096;20.014;2023-05-08T17:51:26;100166.84;;;12.92;46.17
33286;BME280;19656;50.096;20.014;2023-05-08T17:56:31;100164.41;;;12.84;46.51
33286;BME280;19656;50.096;20.014;2023-05-08T18:01:35;100161.83;;;12.75;46.65
33286;BME280;19656;50.096;20.014;2023-05-08T18:06:53;100158.56;;;12.67;47.30
33286;BME280;19656;50.096;20.014;2023-05-08T18:12:33;100162.08;;;12.61;47.57
33286;BME280;19656;50.096;20.014;2023-05-08T18:18:24;100168.29;;;12.51;48.25
33286;BME280;19656;50.096;20.014;2023-05-08T18:24:09;100173.77;;;12.45;48.70
33286;BME280;19656;50.096;20.014;2023-05-08T18:29:42;100180.40;;;12.37;48.73
33286;BME280;19656;50.096;20.014;2023-05-08T18:35:21;100177.86;;;12.31;48.68
33286;BME280;19656;50.096;20.014;2023-05-08T18:40:33;100183.77;;;12.26;49.40
33286;BME280;19656;50.096;20.014;2023-05-08T18:46:10;100189.84;;;12.19;50.30
33286;BME280;19656;50.096;20.014;2023-05-08T18:52:09;100194.34;;;12.15;50.96
33286;BME280;19656;50.096;20.014;2023-05-08T18:57:53;100195.46;;;11.96;50.70
33286;BME280;19656;50.096;20.014;2023-05-08T19:03:04;100204.97;;;11.79;51.35
33286;BME280;19656;50.096;20.014;2023-05-08T19:08:24;100205.70;;;11.63;51.81
33286;BME280;19656;50.096;20.014;2023-05-08T19:13:30;100208.15;;;11.52;52.15
33286;BME280;19656;50.096;20.014;2023-05-08T19:18:36;100208.91;;;11.44;52.81
33286;BME280;19656;50.096;20.014;2023-05-08T19:23:43;100210.08;;;11.34;52.91
33286;BME280;19656;50.096;20.014;2023-05-08T19:28:47;100208.14;;;11.23;53.11
33286;BME280;19656;50.096;20.014;2023-05-08T19:33:51;100212.24;;;11.14;53.00
33286;BME280;19656;50.096;20.014;2023-05-08T19:38:54;100212.64;;;11.09;53.39
33286;BME280;19656;50.096;20.014;2023-05-08T19:44:00;100214.76;;;11.02;53.60
33286;BME280;19656;50.096;20.014;2023-05-08T19:49:03;100212.42;;;11.03;54.81
33286;BME280;19656;50.096;20.014;2023-05-08T19:54:07;100201.59;;;11.15;54.74
33286;BME280;19656;50.096;20.014;2023-05-08T19:59:13;100202.39;;;11.00;53.94
33286;BME280;19656;50.096;20.014;2023-05-08T20:04:16;100196.21;;;10.88;54.13
33286;BME280;19656;50.096;20.014;2023-05-08T20:09:20;100193.45;;;10.74;54.45
33286;BME280;19656;50.096;20.014;2023-05-08T20:14:23;100188.46;;;10.63;54.69
33286;BME280;19656;50.096;20.014;2023-05-08T20:19:27;100188.05;;;10.52;54.86
33286;BME280;19656;50.096;20.014;2023-05-08T20:24:30;100188.52;;;10.41;55.09
33286;BME280;19656;50.096;20.014;2023-05-08T20:29:33;100187.85;;;10.31;55.50
33286;BME280;19656;50.096;20.014;2023-05-08T20:34:37;100183.00;;;10.24;55.66
33286;BME280;19656;50.096;20.014;2023-05-08T20:39:41;100180.71;;;10.19;55.97
33286;BME280;19656;50.096;20.014;2023-05-08T20:44:44;100183.66;;;10.12;56.29
33286;BME280;19656;50.096;20.014;2023-05-08T20:49:48;100181.91;;;10.03;56.16
33286;BME280;19656;50.096;20.014;2023-05-08T20:54:51;100181.68;;;9.96;56.35
33286;BME280;19656;50.096;20.014;2023-05-08T20:59:54;100180.25;;;9.87;56.48
33286;BME280;19656;50.096;20.014;2023-05-08T21:04:58;100179.30;;;9.81;56.88
33286;BME280;19656;50.096;20.014;2023-05-08T21:10:02;100174.40;;;9.75;56.95
33286;BME280;19656;50.096;20.014;2023-05-08T21:15:05;100174.23;;;9.69;57.00
33286;BME280;19656;50.096;20.014;2023-05-08T21:20:09;100170.44;;;9.63;57.28
33286;BME280;19656;50.096;20.014;2023-05-08T21:25:14;100170.46;;;9.53;57.71
33286;BME280;19656;50.096;20.014;2023-05-08T21:30:18;100169.64;;;9.47;57.85
33286;BME280;19656;50.096;20.014;2023-05-08T21:35:21;100164.97;;;9.44;57.98
33286;BME280;19656;50.096;20.014;2023-05-08T21:40:24;100156.80;;;9.40;58.19
33286;BME280;19656;50.096;20.014;2023-05-08T21:45:31;100156.40;;;9.32;58.26
33286;BME280;19656;50.096;20.014;2023-05-08T21:50:35;100157.98;;;9.23;58.28
33286;BME280;19656;50.096;20.014;2023-05-08T21:55:42;100156.27;;;9.17;58.81
33286;BME280;19656;50.096;20.014;2023-05-08T22:00:49;100155.48;;;9.15;58.79
33286;BME280;19656;50.096;20.014;2023-05-08T22:06:10;100152.73;;;9.13;58.86
33286;BME280;19656;50.096;20.014;2023-05-08T22:11:18;100146.20;;;9.08;58.76
33286;BME280;19656;50.096;20.014;2023-05-08T22:16:44;100144.55;;;9.00;58.93
33286;BME280;19656;50.096;20.014;2023-05-08T22:21:47;100140.74;;;8.93;58.96
33286;BME280;19656;50.096;20.014;2023-05-08T22:26:50;100140.02;;;8.88;59.00
33286;BME280;19656;50.096;20.014;2023-05-08T22:31:54;100139.69;;;8.83;59.09
33286;BME280;19656;50.096;20.014;2023-05-08T22:36:57;100136.14;;;8.84;59.23
33286;BME280;19656;50.096;20.014;2023-05-08T22:42:02;100131.11;;;8.81;59.21
33286;BME280;19656;50.096;20.014;2023-05-08T22:47:05;100134.46;;;8.76;59.30
33286;BME280;19656;50.096;20.014;2023-05-08T22:52:08;100131.23;;;8.72;59.57
33286;BME280;19656;50.096;20.014;2023-05-08T22:57:11;100130.03;;;8.67;59.84
33286;BME280;19656;50.096;20.014;2023-05-08T23:02:16;100131.38;;;8.64;60.01
33286;BME280;19656;50.096;20.014;2023-05-08T23:07:19;100135.24;;;8.59;60.18
33286;BME280;19656;50.096;20.014;2023-05-08T23:12:22;100130.33;;;8.54;60.35
33286;BME280;19656;50.096;20.014;2023-05-08T23:17:25;100133.76;;;8.52;60.53
33286;BME280;19656;50.096;20.014;2023-05-08T23:22:28;100127.91;;;8.47;60.47
33286;BME280;19656;50.096;20.014;2023-05-08T23:27:32;100127.83;;;8.45;60.57
33286;BME280;19656;50.096;20.014;2023-05-08T23:32:35;100125.52;;;8.40;60.82
33286;BME280;19656;50.096;20.014;2023-05-08T23:37:40;100121.23;;;8.36;61.07
33286;BME280;19656;50.096;20.014;2023-05-08T23:42:43;100121.86;;;8.33;61.02
33286;BME280;19656;50.096;20.014;2023-05-08T23:47:47;100120.82;;;8.27;61.24
33286;BME280;19656;50.096;20.014;2023-05-08T23:52:51;100107.52;;;8.23;61.13
33286;BME280;19656;50.096;20.014;2023-05-08T23:57:55;100103.09;;;8.18;61.43
